Time;durP1;ratioP1;P1;durP2;ratioP2;P2;SDS_P1;SDS_P2;PMS_P1;PMS_P2;Temp;Humidity;BMP_temperature;BMP_pressure;BME280_temperature;BME280_humidity;BME280_pressure;Samples;Min_cycle;Max_cycle;Signal;HPM_P1;HPM_P2
2022/01/09 00:00:15;;;;;;;3.63;2.20;;;4.70;89.80;;;;;;4908673;29;20458;-50
2022/01/09 00:02:42;;;;;;;5.90;2.43;;;4.70;89.80;;;;;;4907413;29;20917;-50
2022/01/09 00:05:10;;;;;;;2.10;1.90;;;4.70;89.80;;;;;;4904459;29;20465;-50
2022/01/09 00:07:38;;;;;;;2.60;2.10;;;4.80;89.80;;;;;;4907312;29;20657;-50
2022/01/09 00:10:07;;;;;;;2.17;1.93;;;4.80;89.80;;;;;;4905460;29;20536;-50
2022/01/09 00:12:34;;;;;;;2.07;1.87;;;4.80;89.80;;;;;;4900768;29;20464;-50
2022/01/09 00:15:02;;;;;;;3.53;1.90;;;4.80;89.80;;;;;;4905185;29;20472;-50
2022/01/09 00:17:29;;;;;;;1.67;1.57;;;4.80;89.80;;;;;;4906265;29;20962;-50
2022/01/09 00:19:56;;;;;;;3.63;2.10;;;4.70;89.80;;;;;;4909513;29;20460;-50
2022/01/09 00:22:34;;;;;;;3.40;1.90;;;4.70;89.80;;;;;;4903711;29;20791;-50
2022/01/09 00:25:01;;;;;;;1.70;1.60;;;4.80;89.80;;;;;;4902788;29;20472;-50
2022/01/09 00:27:27;;;;;;;2.70;1.93;;;4.80;89.80;;;;;;4906989;29;20511;-50
2022/01/09 00:29:55;;;;;;;2.90;1.77;;;4.80;89.80;;;;;;4903390;29;20943;-50
2022/01/09 00:32:22;;;;;;;2.37;1.43;;;4.80;89.80;;;;;;4918757;29;21031;-50
2022/01/09 00:34:49;;;;;;;2.60;1.67;;;4.80;89.80;;;;;;4906571;29;20541;-49
2022/01/09 00:37:16;;;;;;;3.90;2.10;;;4.90;89.80;;;;;;4920760;29;20474;-50
2022/01/09 00:39:42;;;;;;;4.13;2.27;;;4.90;89.80;;;;;;4907916;29;20556;-49
2022/01/09 00:42:09;;;;;;;1.80;1.70;;;4.90;89.80;;;;;;4902918;29;20484;-50
2022/01/09 00:44:36;;;;;;;1.97;1.70;;;5.00;89.80;;;;;;4917378;29;20461;-51
2022/01/09 00:47:04;;;;;;;2.90;1.97;;;4.90;89.80;;;;;;4902762;29;20469;-50
2022/01/09 00:49:31;;;;;;;3.67;1.83;;;5.00;89.80;;;;;;4900812;29;20504;-51
2022/01/09 00:51:58;;;;;;;2.30;2.03;;;5.00;89.80;;;;;;4917743;29;20597;-51
2022/01/09 00:54:25;;;;;;;2.00;1.70;;;5.00;89.80;;;;;;4916570;29;20456;-51
2022/01/09 00:56:51;;;;;;;2.67;2.00;;;5.00;89.80;;;;;;4903834;29;20545;-51
2022/01/09 00:59:18;;;;;;;2.67;2.37;;;5.00;89.80;;;;;;4903233;29;20448;-50
2022/01/09 01:01:45;;;;;;;3.53;2.03;;;5.00;89.80;;;;;;4898905;29;20450;-51
2022/01/09 01:04:12;;;;;;;3.07;1.43;;;5.10;89.80;;;;;;4918773;29;20457;-50
2022/01/09 01:06:38;;;;;;;4.13;2.00;;;5.10;89.80;;;;;;4908023;29;20564;-51
2022/01/09 01:09:05;;;;;;;2.40;1.87;;;5.10;89.80;;;;;;4902927;29;20457;-50
2022/01/09 01:11:32;;;;;;;2.07;1.97;;;5.10;89.80;;;;;;4899704;29;20515;-50
2022/01/09 01:13:59;;;;;;;1.80;1.70;;;5.00;89.80;;;;;;4905987;29;20459;-50
2022/01/09 01:16:26;;;;;;;2.60;1.50;;;5.10;89.80;;;;;;4899352;29;20548;-49
2022/01/09 01:18:56;;;;;;;1.60;1.50;;;5.10;89.80;;;;;;4902935;29;20465;-49
2022/01/09 01:21:24;;;;;;;1.83;1.70;;;5.10;89.80;;;;;;4903071;29;21025;-50
2022/01/09 01:23:52;;;;;;;1.60;1.50;;;5.10;89.80;;;;;;4904241;29;21030;-51
2022/01/09 01:26:19;;;;;;;3.30;1.30;;;5.10;89.80;;;;;;4902509;29;20567;-50
2022/01/09 01:28:46;;;;;;;1.60;1.50;;;5.20;89.80;;;;;;4904508;29;20461;-50
2022/01/09 01:31:12;;;;;;;0.90;0.90;;;5.10;89.80;;;;;;4906683;29;20524;-50
2022/01/09 01:33:39;;;;;;;1.37;1.10;;;5.20;89.80;;;;;;4902514;29;20491;-49
2022/01/09 01:36:06;;;;;;;1.20;1.10;;;5.20;89.80;;;;;;4907914;29;20445;-50
2022/01/09 01:38:33;;;;;;;1.33;0.90;;;5.20;89.80;;;;;;4902880;29;20457;-50
2022/01/09 01:41:00;;;;;;;1.00;0.90;;;5.20;89.80;;;;;;4918876;29;20964;-49
2022/01/09 01:43:27;;;;;;;1.43;1.33;;;5.20;89.80;;;;;;4898734;29;20477;-49
2022/01/09 01:45:54;;;;;;;0.90;0.90;;;5.20;89.80;;;;;;4902643;29;20465;-50
2022/01/09 01:48:21;;;;;;;1.10;1.00;;;5.20;89.80;;;;;;4902506;29;20465;-51
2022/01/09 01:50:48;;;;;;;1.23;1.13;;;5.30;89.80;;;;;;4900615;29;20853;-50
2022/01/09 01:53:19;;;;;;;1.10;0.97;;;5.30;89.80;;;;;;4901033;29;20858;-50
2022/01/09 01:55:52;;;;;;;0.70;0.70;;;5.20;89.80;;;;;;4906992;29;20485;-51
2022/01/09 01:58:20;;;;;;;1.67;0.60;;;5.20;89.80;;;;;;4908678;29;20879;-51
2022/01/09 02:00:48;;;;;;;0.70;0.70;;;5.30;89.80;;;;;;4908672;29;20957;-50
2022/01/09 02:03:15;;;;;;;0.67;0.60;;;5.30;89.80;;;;;;4911772;29;20472;-51
2022/01/09 02:05:44;;;;;;;0.93;0.63;;;5.30;89.80;;;;;;4908320;29;20536;-50
2022/01/09 02:08:11;;;;;;;0.70;0.60;;;5.40;89.80;;;;;;4906089;29;20481;-50
2022/01/09 02:10:40;;;;;;;0.90;0.50;;;5.40;89.80;;;;;;4903020;29;20492;-50
2022/01/09 02:13:07;;;;;;;1.10;0.77;;;5.30;89.80;;;;;;4907768;29;20552;-51
2022/01/09 02:15:44;;;;;;;0.50;0.40;;;5.30;89.80;;;;;;4916648;29;20563;-50
2022/01/09 02:18:19;;;;;;;0.60;0.50;;;5.40;89.80;;;;;;4906358;29;20498;-50
2022/01/09 02:20:47;;;;;;;1.17;0.63;;;5.30;89.80;;;;;;4905323;29;20496;-50
2022/01/09 02:23:16;;;;;;;0.87;0.60;;;5.30;89.80;;;;;;4909061;29;20830;-51
2022/01/09 02:25:45;;;;;;;0.40;0.40;;;5.30;89.80;;;;;;4909229;29;20496;-50
2022/01/09 02:28:14;;;;;;;8.10;4.97;;;5.30;89.80;;;;;;4904508;29;20467;-50
2022/01/09 02:30:44;;;;;;;5.00;2.27;;;5.30;89.80;;;;;;4905574;29;20518;-50
2022/01/09 02:33:15;;;;;;;3.43;1.63;;;5.30;89.80;;;;;;4906532;29;20472;-50
2022/01/09 02:35:42;;;;;;;0.60;0.57;;;5.30;89.80;;;;;;4919928;29;20504;-50
2022/01/09 02:38:09;;;;;;;0.63;0.63;;;5.30;89.80;;;;;;4907664;29;20469;-50
2022/01/09 02:40:36;;;;;;;0.77;0.70;;;5.30;89.80;;;;;;4908069;29;20473;-50
2022/01/09 02:43:03;;;;;;;0.53;0.53;;;5.30;89.80;;;;;;4905711;29;20528;-51
2022/01/09 02:45:31;;;;;;;0.70;0.50;;;5.40;89.80;;;;;;4907641;29;20560;-50
2022/01/09 02:48:00;;;;;;;0.60;0.60;;;5.40;89.80;;;;;;4902731;29;20483;-51
2022/01/09 02:50:35;;;;;;;0.57;0.47;;;5.40;89.80;;;;;;4904687;29;21096;-50
2022/01/09 02:53:13;;;;;;;0.70;0.60;;;5.40;89.80;;;;;;4907953;29;20456;-51
2022/01/09 02:55:40;;;;;;;0.73;0.50;;;5.30;89.80;;;;;;4908996;29;20906;-50
2022/01/09 02:58:07;;;;;;;0.47;0.40;;;5.30;89.80;;;;;;4908627;29;20468;-51
2022/01/09 03:00:38;;;;;;;1.00;0.60;;;5.30;89.80;;;;;;4910591;29;20474;-51
2022/01/09 03:03:05;;;;;;;0.40;0.40;;;5.30;89.80;;;;;;4906561;29;20528;-50
2022/01/09 03:05:32;;;;;;;1.83;0.50;;;5.20;89.80;;;;;;4917274;29;20468;-51
2022/01/09 03:07:59;;;;;;;3.70;0.43;;;5.20;89.80;;;;;;4906854;29;20481;-50
2022/01/09 03:10:26;;;;;;;0.70;0.50;;;5.20;89.80;;;;;;4916877;29;20949;-50
2022/01/09 03:12:58;;;;;;;0.40;0.40;;;5.30;89.80;;;;;;4905609;29;20556;-50
2022/01/09 03:15:26;;;;;;;0.80;0.40;;;5.30;89.80;;;;;;4906916;29;20551;-50
2022/01/09 03:17:53;;;;;;;0.40;0.40;;;5.30;89.80;;;;;;4904590;29;20469;-50
2022/01/09 03:20:23;;;;;;;0.53;0.40;;;5.30;89.80;;;;;;4902506;29;20483;-50
2022/01/09 03:22:50;;;;;;;0.83;0.60;;;5.30;89.80;;;;;;4905642;29;20496;-50
2022/01/09 03:25:17;;;;;;;0.50;0.50;;;5.30;89.80;;;;;;4904813;29;20509;-51
2022/01/09 03:27:50;;;;;;;0.50;0.40;;;5.30;89.80;;;;;;4906560;29;20560;-50
2022/01/09 03:30:19;;;;;;;0.90;0.60;;;5.40;89.80;;;;;;4909823;29;20580;-50
2022/01/09 03:32:48;;;;;;;0.40;0.40;;;5.40;89.80;;;;;;4903974;29;20544;-50
2022/01/09 03:35:18;;;;;;;0.50;0.50;;;5.40;89.80;;;;;;4906250;29;20544;-50
2022/01/09 03:37:46;;;;;;;1.00;0.70;;;5.40;89.80;;;;;;4909924;29;20943;-50
2022/01/09 03:40:18;;;;;;;0.60;0.40;;;5.40;89.80;;;;;;4904280;29;20536;-50
2022/01/09 03:42:51;;;;;;;0.73;0.40;;;5.40;89.80;;;;;;4906333;29;20549;-50
2022/01/09 03:45:20;;;;;;;0.47;0.40;;;5.40;89.80;;;;;;4905194;29;21001;-50
2022/01/09 03:47:47;;;;;;;0.43;0.43;;;5.40;89.80;;;;;;4904598;29;20467;-50
2022/01/09 03:50:14;;;;;;;0.40;0.40;;;5.40;89.80;;;;;;4902284;29;20473;-50
2022/01/09 03:52:41;;;;;;;1.77;0.80;;;5.40;89.80;;;;;;4906368;29;20556;-50
2022/01/09 03:55:11;;;;;;;0.40;0.30;;;5.30;89.80;;;;;;4904865;29;20460;-50
2022/01/09 03:57:38;;;;;;;0.50;0.50;;;5.30;89.80;;;;;;4903328;29;20488;-50
2022/01/09 04:00:09;;;;;;;0.40;0.40;;;5.30;89.80;;;;;;4906008;29;20565;-50
2022/01/09 04:02:36;;;;;;;0.30;0.30;;;5.30;89.80;;;;;;4903487;29;20473;-50
2022/01/09 04:05:03;;;;;;;0.40;0.30;;;5.30;89.80;;;;;;4903075;29;20468;-50
2022/01/09 04:07:30;;;;;;;0.40;0.30;;;5.20;89.70;;;;;;4905765;29;20552;-50
2022/01/09 04:09:57;;;;;;;0.30;0.30;;;5.20;89.70;;;;;;4904102;29;21037;-49
2022/01/09 04:12:33;;;;;;;0.40;0.30;;;5.20;89.80;;;;;;4918656;29;20535;-50
2022/01/09 04:15:07;;;;;;;0.33;0.30;;;5.20;89.70;;;;;;4905268;29;20461;-49
2022/01/09 04:20:09;;;;;;;0.40;0.20;;;5.20;89.80;;;;;;4904221;29;20950;-50
2022/01/09 04:22:37;;;;;;;0.30;0.30;;;5.20;89.70;;;;;;4906975;29;20907;-50
2022/01/09 04:25:05;;;;;;;0.30;0.30;;;5.20;89.60;;;;;;4920027;29;20748;-50
2022/01/09 04:27:32;;;;;;;0.50;0.30;;;5.20;89.00;;;;;;4903770;29;20974;-50
2022/01/09 04:29:59;;;;;;;0.40;0.30;;;5.20;89.40;;;;;;4902295;29;20840;-50
2022/01/09 04:32:26;;;;;;;0.50;0.33;;;5.10;89.40;;;;;;4905765;29;20507;-50
2022/01/09 04:34:53;;;;;;;0.30;0.30;;;5.20;89.40;;;;;;4908977;29;20465;-50
2022/01/09 04:37:20;;;;;;;0.30;0.30;;;5.10;89.70;;;;;;4904407;29;20997;-50
2022/01/09 04:39:49;;;;;;;0.30;0.20;;;5.10;89.80;;;;;;4907266;29;20471;-50
2022/01/09 04:42:16;;;;;;;1.03;0.40;;;5.10;89.80;;;;;;4906718;29;20468;-50
2022/01/09 04:44:43;;;;;;;0.70;0.30;;;5.20;89.70;;;;;;4907295;29;20462;-50
2022/01/09 04:47:15;;;;;;;0.30;0.20;;;5.20;89.40;;;;;;4918547;29;21138;-50
2022/01/09 04:49:44;;;;;;;1.17;0.40;;;5.20;89.80;;;;;;4903610;29;20469;-49
2022/01/09 04:52:17;;;;;;;0.40;0.30;;;5.10;89.80;;;;;;4918809;29;20980;-49
2022/01/09 04:54:44;;;;;;;0.30;0.20;;;5.10;89.80;;;;;;4906504;29;20467;-49
2022/01/09 04:57:11;;;;;;;0.30;0.30;;;5.10;89.80;;;;;;4908598;29;20461;-49
2022/01/09 04:59:38;;;;;;;0.30;0.30;;;5.10;89.80;;;;;;4906084;29;20466;-49
2022/01/09 05:02:05;;;;;;;0.73;0.30;;;5.10;89.40;;;;;;4900378;29;20472;-49
2022/01/09 05:04:32;;;;;;;0.40;0.20;;;5.10;89.70;;;;;;4903466;29;20995;-49
2022/01/09 05:06:59;;;;;;;1.33;0.40;;;5.10;89.80;;;;;;4904437;29;20477;-49
2022/01/09 05:09:25;;;;;;;1.60;0.90;;;5.00;89.80;;;;;;4902114;29;20477;-49
2022/01/09 05:11:52;;;;;;;0.73;0.50;;;5.00;89.80;;;;;;4904943;29;20834;-49
2022/01/09 05:14:19;;;;;;;0.40;0.40;;;5.00;89.80;;;;;;4918452;29;20479;-49
2022/01/09 05:16:46;;;;;;;0.80;0.40;;;5.00;89.80;;;;;;4905725;29;20469;-48
2022/01/09 05:19:19;;;;;;;1.00;0.87;;;5.00;89.80;;;;;;4904475;29;20471;-49
2022/01/09 05:21:47;;;;;;;0.50;0.50;;;5.00;89.80;;;;;;4904218;29;20568;-49
2022/01/09 05:24:14;;;;;;;2.20;0.43;;;5.00;89.80;;;;;;4905445;29;20572;-48
2022/01/09 05:26:41;;;;;;;1.43;0.80;;;5.00;89.80;;;;;;4904129;29;20481;-49
2022/01/09 05:29:08;;;;;;;1.27;0.50;;;5.00;89.80;;;;;;4907581;29;20469;-50
2022/01/09 05:31:34;;;;;;;1.07;0.30;;;4.90;89.80;;;;;;4908404;29;20496;-50
2022/01/09 05:34:01;;;;;;;1.13;0.40;;;4.90;89.80;;;;;;4909902;29;20468;-50
2022/01/09 05:36:28;;;;;;;1.73;0.80;;;5.00;89.80;;;;;;4920037;29;21042;-51
2022/01/09 05:38:55;;;;;;;0.50;0.50;;;4.90;89.80;;;;;;4924193;29;20492;-51
2022/01/09 05:41:22;;;;;;;0.90;0.60;;;4.90;89.80;;;;;;4923675;29;20481;-50
2022/01/09 05:43:49;;;;;;;1.07;0.70;;;4.90;89.80;;;;;;4907262;29;20483;-51
2022/01/09 05:46:16;;;;;;;0.43;0.40;;;4.90;89.80;;;;;;4905273;29;20466;-50
2022/01/09 05:48:43;;;;;;;1.53;0.50;;;4.90;89.80;;;;;;4907721;29;20479;-50
2022/01/09 05:51:10;;;;;;;0.60;0.60;;;4.90;89.80;;;;;;4905397;29;20502;-51
2022/01/09 05:53:36;;;;;;;1.70;0.63;;;5.00;89.80;;;;;;4909385;29;20465;-49
2022/01/09 05:56:05;;;;;;;1.83;0.80;;;4.90;89.80;;;;;;4907683;29;20469;-50
2022/01/09 05:58:33;;;;;;;0.60;0.60;;;5.00;89.80;;;;;;4921990;29;20469;-50
2022/01/09 06:01:00;;;;;;;0.60;0.60;;;5.00;89.80;;;;;;4908720;29;20473;-48
2022/01/09 06:03:27;;;;;;;2.07;0.87;;;5.00;89.80;;;;;;4908511;29;20484;-49
2022/01/09 06:05:54;;;;;;;2.00;0.87;;;5.00;89.80;;;;;;4909843;29;20476;-49
2022/01/09 06:08:21;;;;;;;1.00;0.60;;;5.00;89.80;;;;;;4907430;29;20871;-49
2022/01/09 06:10:48;;;;;;;1.57;0.80;;;5.00;89.80;;;;;;4910306;29;20479;-49
2022/01/09 06:13:14;;;;;;;3.90;1.00;;;5.00;89.80;;;;;;4903498;29;20479;-49
2022/01/09 06:15:41;;;;;;;1.00;0.80;;;5.00;89.80;;;;;;4903914;29;20472;-50
2022/01/09 06:18:09;;;;;;;5.70;1.33;;;5.00;89.80;;;;;;4923586;29;20475;-50
2022/01/09 06:20:35;;;;;;;1.40;1.10;;;5.00;89.80;;;;;;4903654;29;20493;-49
2022/01/09 06:23:02;;;;;;;0.60;0.60;;;5.00;89.80;;;;;;4906602;29;20512;-49
2022/01/09 06:25:29;;;;;;;10.23;2.27;;;5.10;89.80;;;;;;4906301;29;21028;-49
2022/01/09 06:27:57;;;;;;;1.83;1.00;;;5.10;89.80;;;;;;4906207;29;20472;-48
2022/01/09 06:30:24;;;;;;;6.23;2.10;;;5.10;89.80;;;;;;4907450;29;20465;-49
2022/01/09 06:32:51;;;;;;;1.50;1.10;;;5.10;89.80;;;;;;4905730;29;20504;-49
2022/01/09 06:35:17;;;;;;;2.30;1.07;;;5.10;89.80;;;;;;4903851;29;20476;-50
2022/01/09 06:37:44;;;;;;;3.67;1.80;;;5.10;89.80;;;;;;4908384;29;20468;-49
2022/01/09 06:40:11;;;;;;;1.73;1.63;;;5.20;89.80;;;;;;4908216;29;20475;-50
2022/01/09 06:42:38;;;;;;;4.57;1.27;;;5.20;89.80;;;;;;4903152;29;20474;-50
2022/01/09 06:45:05;;;;;;;3.03;1.70;;;5.20;89.80;;;;;;4905810;29;20466;-49
2022/01/09 06:47:32;;;;;;;3.10;1.60;;;5.20;89.80;;;;;;4903513;29;20563;-49
2022/01/09 06:49:59;;;;;;;6.80;2.73;;;5.30;89.40;;;;;;4921918;29;20813;-49
2022/01/09 06:52:26;;;;;;;6.50;1.70;;;5.30;88.90;;;;;;4922449;29;20497;-49
2022/01/09 06:54:53;;;;;;;6.10;2.50;;;5.30;88.70;;;;;;4907128;29;20456;-49
2022/01/09 06:57:20;;;;;;;4.13;1.50;;;5.20;88.60;;;;;;4908061;29;20469;-49
2022/01/09 06:59:46;;;;;;;4.80;1.77;;;5.20;88.80;;;;;;4901609;29;20464;-49
2022/01/09 07:02:13;;;;;;;7.17;2.37;;;5.20;88.50;;;;;;4904223;29;20470;-50
2022/01/09 07:04:40;;;;;;;4.00;2.20;;;5.20;89.00;;;;;;4905313;29;20478;-50
2022/01/09 07:07:07;;;;;;;2.53;1.60;;;5.20;88.60;;;;;;4907986;29;20484;-49
2022/01/09 07:09:34;;;;;;;2.87;1.57;;;5.30;88.60;;;;;;4904892;29;20465;-49
2022/01/09 07:12:01;;;;;;;4.07;1.80;;;5.30;88.80;;;;;;4905737;29;20507;-50
2022/01/09 07:14:28;;;;;;;3.10;1.80;;;5.30;88.70;;;;;;4908408;29;20504;-50
2022/01/09 07:16:55;;;;;;;7.97;2.27;;;5.30;88.50;;;;;;4901147;29;20462;-49
2022/01/09 07:19:21;;;;;;;6.87;2.07;;;5.30;88.40;;;;;;4906706;29;20551;-49
2022/01/09 07:21:49;;;;;;;10.13;3.43;;;5.40;88.40;;;;;;4893121;29;20477;-49
2022/01/09 07:24:16;;;;;;;4.20;2.20;;;5.40;88.20;;;;;;4905663;29;20489;-49
2022/01/09 07:26:43;;;;;;;6.30;2.50;;;5.40;87.60;;;;;;4902899;29;20473;-49
2022/01/09 07:29:09;;;;;;;3.90;1.47;;;5.30;87.40;;;;;;4903734;29;20948;-49
2022/01/09 07:31:36;;;;;;;4.67;1.90;;;5.30;87.40;;;;;;4905212;29;20820;-50
2022/01/09 07:34:03;;;;;;;1.70;1.50;;;5.30;87.70;;;;;;4903827;29;20806;-49
2022/01/09 07:36:30;;;;;;;5.70;1.93;;;5.30;87.50;;;;;;4909292;29;20461;-49
2022/01/09 07:38:57;;;;;;;5.17;1.40;;;5.30;87.70;;;;;;4905978;29;20461;-50
2022/01/09 07:41:24;;;;;;;2.43;1.80;;;5.30;87.30;;;;;;4906388;29;20482;-49
2022/01/09 07:43:51;;;;;;;3.33;1.73;;;5.30;87.20;;;;;;4901612;29;20842;-49
2022/01/09 07:46:18;;;;;;;5.13;1.67;;;5.30;87.50;;;;;;4905945;29;20473;-49
2022/01/09 07:48:45;;;;;;;4.10;2.00;;;5.30;87.10;;;;;;4922606;29;20964;-49
2022/01/09 07:51:12;;;;;;;2.40;1.20;;;5.30;87.20;;;;;;4906097;29;20480;-49
2022/01/09 07:53:39;;;;;;;3.00;1.67;;;5.30;87.20;;;;;;4906314;29;20468;-49
2022/01/09 07:56:08;;;;;;;3.13;1.90;;;5.40;87.20;;;;;;4919144;29;20548;-50
2022/01/09 07:58:36;;;;;;;3.13;2.03;;;5.40;87.00;;;;;;4904759;29;20993;-50
2022/01/09 08:01:04;;;;;;;5.43;1.77;;;5.40;87.00;;;;;;4890203;29;20469;-50
2022/01/09 08:03:31;;;;;;;4.23;1.57;;;5.40;86.90;;;;;;4904263;29;20465;-50
2022/01/09 08:05:58;;;;;;;4.60;1.77;;;5.40;87.10;;;;;;4906754;29;20548;-50
2022/01/09 08:08:25;;;;;;;4.33;1.73;;;5.40;87.30;;;;;;4905468;29;20843;-50
2022/01/09 08:10:52;;;;;;;6.70;1.70;;;5.40;87.00;;;;;;4904495;29;20475;-50
2022/01/09 08:13:19;;;;;;;3.03;1.43;;;5.40;86.70;;;;;;4905463;29;20501;-51
2022/01/09 08:15:46;;;;;;;6.63;1.73;;;5.40;86.70;;;;;;4904083;29;20967;-50
2022/01/09 08:18:14;;;;;;;2.60;1.50;;;5.40;86.10;;;;;;4899475;29;20465;-50
2022/01/09 08:20:40;;;;;;;5.03;1.67;;;5.40;86.20;;;;;;4901635;29;20470;-50
2022/01/09 08:23:07;;;;;;;5.63;1.77;;;5.50;86.30;;;;;;4909350;29;20493;-50
2022/01/09 08:25:34;;;;;;;1.77;1.33;;;5.50;86.10;;;;;;4905466;29;20507;-51
2022/01/09 08:28:01;;;;;;;4.20;2.37;;;5.50;85.80;;;;;;4905192;29;20974;-50
2022/01/09 08:30:28;;;;;;;3.97;1.93;;;5.50;86.00;;;;;;4917288;29;20461;-50
2022/01/09 08:32:55;;;;;;;11.73;2.20;;;5.60;85.70;;;;;;4918973;29;21068;-51
2022/01/09 08:35:22;;;;;;;3.53;1.70;;;5.60;85.70;;;;;;4900162;29;20480;-51
2022/01/09 08:37:49;;;;;;;4.60;1.77;;;5.60;85.90;;;;;;4906405;29;20525;-50
2022/01/09 08:40:21;;;;;;;4.40;2.07;;;5.60;86.10;;;;;;4904180;29;20488;-50
2022/01/09 08:42:50;;;;;;;4.87;2.20;;;5.60;86.10;;;;;;4903019;29;20480;-50
2022/01/09 08:45:17;;;;;;;7.77;2.53;;;5.50;86.30;;;;;;4902092;29;20473;-51
2022/01/09 08:47:44;;;;;;;2.03;1.83;;;5.60;86.00;;;;;;4902117;29;20465;-51
2022/01/09 08:50:13;;;;;;;5.70;2.00;;;5.60;86.10;;;;;;4898784;29;20472;-50
2022/01/09 08:52:40;;;;;;;3.60;1.70;;;5.60;86.00;;;;;;4903009;29;20492;-50
2022/01/09 08:55:07;;;;;;;2.30;1.67;;;5.60;86.20;;;;;;4905651;29;20460;-51
2022/01/09 08:57:34;;;;;;;8.50;2.90;;;5.70;85.90;;;;;;4897687;29;20471;-50
2022/01/09 09:00:03;;;;;;;2.17;1.80;;;5.70;86.00;;;;;;4899309;29;20467;-49
2022/01/09 09:02:30;;;;;;;5.30;2.50;;;5.70;85.50;;;;;;4901970;29;20474;-49
2022/01/09 09:05:05;;;;;;;2.00;1.47;;;5.70;85.70;;;;;;4901966;29;20484;-50
2022/01/09 09:07:32;;;;;;;4.23;2.00;;;5.70;85.30;;;;;;4903118;29;20503;-50
2022/01/09 09:10:03;;;;;;;3.80;1.93;;;5.70;85.10;;;;;;4902356;29;21076;-50
2022/01/09 09:12:32;;;;;;;3.30;1.90;;;5.70;85.10;;;;;;4901032;29;21097;-50
2022/01/09 09:15:01;;;;;;;5.40;1.40;;;5.80;84.70;;;;;;4899707;29;20469;-50
2022/01/09 09:17:28;;;;;;;4.83;1.73;;;5.80;84.80;;;;;;4913326;29;20476;-50
2022/01/09 09:20:00;;;;;;;5.67;2.67;;;5.80;84.80;;;;;;4905135;29;20457;-50
2022/01/09 09:22:27;;;;;;;5.07;1.63;;;5.80;84.80;;;;;;4915939;29;20722;-50
2022/01/09 09:24:54;;;;;;;3.90;1.60;;;5.80;84.90;;;;;;4904825;29;20476;-49
2022/01/09 09:27:22;;;;;;;4.50;1.30;;;5.80;84.00;;;;;;4901328;29;20894;-49
2022/01/09 09:29:48;;;;;;;5.60;1.37;;;5.80;83.60;;;;;;4898896;29;20476;-50
2022/01/09 09:32:15;;;;;;;6.03;1.70;;;5.80;83.80;;;;;;4903576;29;21036;-50
2022/01/09 09:34:43;;;;;;;5.57;2.00;;;5.80;83.90;;;;;;4905435;29;20471;-50
2022/01/09 09:37:10;;;;;;;3.50;2.13;;;5.90;83.90;;;;;;4901695;29;20473;-51
2022/01/09 09:39:37;;;;;;;3.33;2.83;;;5.90;83.50;;;;;;4904338;29;20464;-51
2022/01/09 09:42:04;;;;;;;3.20;1.40;;;5.90;83.40;;;;;;4904327;29;21350;-50
2022/01/09 09:44:31;;;;;;;4.87;1.93;;;5.90;83.70;;;;;;4902602;29;20548;-50
2022/01/09 09:47:00;;;;;;;2.13;1.70;;;5.90;84.00;;;;;;4914900;29;20540;-51
2022/01/09 09:49:27;;;;;;;7.20;1.60;;;5.90;83.40;;;;;;4903388;29;20479;-52
2022/01/09 09:51:53;;;;;;;3.20;1.60;;;6.00;83.20;;;;;;4902655;29;21092;-52
2022/01/09 09:54:20;;;;;;;2.07;1.10;;;6.00;83.20;;;;;;4902522;29;20479;-52
2022/01/09 09:56:47;;;;;;;1.80;1.30;;;6.00;83.60;;;;;;4899868;29;20457;-53
2022/01/09 09:59:23;;;;;;;1.33;1.00;;;6.10;83.10;;;;;;4901601;29;20470;-53
2022/01/09 10:01:52;;;;;;;1.00;0.90;;;6.10;82.70;;;;;;4901267;29;20457;-52
2022/01/09 10:04:18;;;;;;;6.53;1.30;;;6.20;82.60;;;;;;4918005;29;20461;-52
2022/01/09 10:06:47;;;;;;;3.93;2.93;;;6.30;82.80;;;;;;4905406;29;20469;-51
2022/01/09 10:09:24;;;;;;;2.70;1.43;;;6.30;82.60;;;;;;4902810;29;20512;-51
2022/01/09 10:11:51;;;;;;;5.60;2.10;;;6.40;81.70;;;;;;4917301;29;20979;-52
2022/01/09 10:14:30;;;;;;;3.00;1.70;;;6.40;81.10;;;;;;4904937;29;20526;-51
2022/01/09 10:17:16;;;;;;;3.53;1.97;;;6.40;81.90;;;;;;4907268;29;20456;-51
2022/01/09 10:19:56;;;;;;;5.00;1.97;;;6.40;81.60;;;;;;4917620;29;20830;-51
2022/01/09 10:22:29;;;;;;;3.43;2.20;;;6.40;81.10;;;;;;4901716;29;20456;-51
2022/01/09 10:24:57;;;;;;;3.70;1.53;;;6.40;81.20;;;;;;4923308;29;20460;-51
2022/01/09 10:27:33;;;;;;;4.67;1.83;;;6.30;81.10;;;;;;4919949;29;20465;-52
2022/01/09 10:30:04;;;;;;;2.37;1.57;;;6.30;81.60;;;;;;4905801;29;20938;-52
2022/01/09 10:32:31;;;;;;;5.70;1.80;;;6.30;81.30;;;;;;4905668;29;20542;-51
2022/01/09 10:35:18;;;;;;;2.77;1.37;;;6.30;81.30;;;;;;4907695;29;20457;-51
2022/01/09 10:38:23;;;;;;;3.17;2.60;;;6.20;81.10;;;;;;4921867;29;21086;-51
2022/01/09 11:24:10;;;;;;;3.70;1.33;;;6.50;80.10;;;;;;4947023;23;20501;-51
2022/01/09 11:26:56;;;;;;;3.17;0.97;;;6.60;80.30;;;;;;4946438;28;21023;-52
2022/01/09 11:29:49;;;;;;;6.23;2.00;;;6.70;79.90;;;;;;4950969;28;20458;-51
2022/01/09 11:32:24;;;;;;;6.00;1.80;;;6.70;79.80;;;;;;4950105;28;20494;-51
2022/01/09 11:34:58;;;;;;;4.03;2.57;;;6.80;78.70;;;;;;4950302;28;20450;-51
2022/01/09 11:37:51;;;;;;;5.90;1.30;;;6.80;78.60;;;;;;4950178;28;20490;-51
2022/01/09 11:40:25;;;;;;;3.57;1.67;;;6.90;78.80;;;;;;4949164;28;20453;-51
2022/01/09 11:43:04;;;;;;;4.17;1.20;;;6.90;78.90;;;;;;4952570;28;20458;-50
2022/01/09 11:45:43;;;;;;;3.17;1.50;;;7.00;79.20;;;;;;4950432;28;20869;-51
2022/01/09 11:48:12;;;;;;;3.07;1.20;;;7.00;77.40;;;;;;4953052;28;20459;-51
2022/01/09 11:51:06;;;;;;;1.83;1.50;;;7.00;77.20;;;;;;4948147;28;20558;-50
2022/01/09 11:54:04;;;;;;;6.93;1.53;;;7.10;77.30;;;;;;4944966;28;20582;-51
2022/01/09 11:56:49;;;;;;;4.63;1.40;;;7.10;77.60;;;;;;4947269;28;20463;-51
2022/01/09 11:59:40;;;;;;;5.10;1.83;;;7.10;77.80;;;;;;4949361;28;20454;-51
2022/01/09 12:02:18;;;;;;;2.10;1.40;;;7.20;76.50;;;;;;4946261;28;20467;-51
2022/01/09 12:04:48;;;;;;;5.60;1.77;;;7.20;76.60;;;;;;4948441;28;20466;-51
2022/01/09 12:07:41;;;;;;;4.00;1.37;;;7.20;76.10;;;;;;4948920;28;20486;-51
2022/01/09 12:10:17;;;;;;;3.50;1.53;;;7.20;76.00;;;;;;4945407;28;20450;-52
2022/01/09 12:12:45;;;;;;;2.53;1.40;;;7.20;76.80;;;;;;4951297;28;20492;-51
2022/01/09 12:15:14;;;;;;;2.60;1.27;;;7.20;76.90;;;;;;4947412;28;20960;-52
2022/01/09 12:17:45;;;;;;;2.93;1.60;;;7.20;76.70;;;;;;4944868;28;20470;-51
2022/01/09 12:20:12;;;;;;;6.40;2.20;;;7.30;76.40;;;;;;4943593;28;20516;-51
2022/01/09 12:23:01;;;;;;;2.07;1.40;;;7.20;75.20;;;;;;4925108;29;20550;-51
2022/01/09 12:25:29;;;;;;;2.73;1.70;;;7.20;76.30;;;;;;4924869;29;21317;-52
2022/01/09 12:28:03;;;;;;;3.20;1.47;;;7.20;76.40;;;;;;4922827;29;20452;-52
2022/01/09 12:30:41;;;;;;;2.53;1.40;;;7.30;76.00;;;;;;4925325;29;20475;-52
2022/01/09 12:33:09;;;;;;;2.47;2.17;;;7.30;75.40;;;;;;4925836;29;20487;-52
2022/01/09 12:35:43;;;;;;;4.00;1.73;;;7.30;75.50;;;;;;4924192;28;20457;-51
2022/01/09 12:38:16;;;;;;;6.50;1.70;;;7.30;76.10;;;;;;4922346;29;20558;-51
2022/01/09 12:40:49;;;;;;;6.13;1.40;;;7.40;75.20;;;;;;4923783;29;20471;-51
2022/01/09 12:43:22;;;;;;;4.03;1.20;;;7.40;74.90;;;;;;4904061;29;20460;-51
2022/01/09 12:45:50;;;;;;;2.13;1.37;;;7.40;75.50;;;;;;4922559;29;20460;-51
2022/01/09 12:48:28;;;;;;;5.70;1.20;;;7.50;74.60;;;;;;4923463;29;20543;-51
2022/01/09 12:51:14;;;;;;;2.53;1.30;;;7.50;74.40;;;;;;4921994;29;20495;-51
2022/01/09 12:53:43;;;;;;;6.63;1.47;;;7.60;75.40;;;;;;4923705;29;20577;-51
2022/01/09 12:56:17;;;;;;;10.23;1.50;;;7.60;74.70;;;;;;4923215;29;20451;-51
2022/01/09 12:58:48;;;;;;;7.43;2.07;;;7.70;73.60;;;;;;4921504;29;20759;-51
2022/01/09 13:01:31;;;;;;;11.03;1.83;;;7.70;72.80;;;;;;4920900;29;20518;-51
2022/01/09 13:04:01;;;;;;;4.67;1.47;;;7.80;73.20;;;;;;4922967;29;20456;-51
2022/01/09 13:06:34;;;;;;;7.20;1.87;;;7.80;73.50;;;;;;4923868;29;20464;-51
2022/01/09 13:09:04;;;;;;;2.73;1.73;;;7.90;73.50;;;;;;4922793;29;20471;-50
2022/01/09 13:12:00;;;;;;;3.70;1.50;;;7.90;72.00;;;;;;4924097;29;20534;-52
2022/01/09 13:14:33;;;;;;;8.60;1.80;;;7.90;72.70;;;;;;4922071;29;20586;-51
2022/01/09 13:17:03;;;;;;;4.67;1.27;;;7.90;71.90;;;;;;4924475;29;20461;-50
2022/01/09 13:19:51;;;;;;;5.57;1.53;;;7.90;72.20;;;;;;4912730;29;20437;-51
2022/01/09 13:22:19;;;;;;;3.73;0.90;;;7.80;72.20;;;;;;4916816;29;20451;-48
2022/01/09 13:24:46;;;;;;;5.13;1.70;;;7.80;71.30;;;;;;4918606;29;20974;-48
2022/01/09 13:27:19;;;;;;;3.93;1.60;;;7.80;72.40;;;;;;4923555;29;20468;-48
2022/01/09 13:29:59;;;;;;;3.30;1.33;;;7.80;72.00;;;;;;4935897;28;20440;-49
2022/01/09 13:32:25;;;;;;;2.90;1.93;;;7.90;70.80;;;;;;4920477;29;20457;-48
2022/01/09 13:34:54;;;;;;;6.47;1.23;;;7.90;70.70;;;;;;4927579;29;20506;-48
2022/01/09 13:37:22;;;;;;;4.30;1.73;;;7.80;69.50;;;;;;4922215;29;20847;-48
2022/01/09 13:39:59;;;;;;;1.53;1.03;;;7.80;70.40;;;;;;4919433;29;20463;-49
2022/01/09 13:42:30;;;;;;;3.90;1.87;;;7.80;70.60;;;;;;4907866;29;21024;-49
2022/01/09 13:45:08;;;;;;;7.90;2.97;;;7.80;71.00;;;;;;4923591;29;20452;-49
2022/01/09 13:47:53;;;;;;;2.67;1.33;;;7.80;70.50;;;;;;4922519;29;20994;-49
2022/01/09 13:50:22;;;;;;;4.23;1.27;;;7.70;70.40;;;;;;4926380;29;20494;-48
2022/01/09 13:52:54;;;;;;;5.83;2.13;;;7.70;70.50;;;;;;4924285;29;20492;-48
2022/01/09 13:55:26;;;;;;;4.57;1.33;;;7.60;71.20;;;;;;4927369;29;20457;-49